CPA902 VHHH-RPLL
Flight info
| Callsign | CPA902 |
|---|---|
| Flight time | N/A |
| Altitude | 39000 |
| Route | DALOL V641 NOMAN A461 AVMUP W16 TADEL TADEL3R |
| Aircraft | B77W/H-SDE1E2E3FGHIJ2J3J4J5M1RWXY/LB1D1 |
Departure
| Time | N/A |
|---|---|
| Airport | Hong Kong International Airport (VHHH) |
Arrival
| Time | 2026-05-08 04:00 |
|---|---|
| Airport | Ninoy Aquino International Airport (RPLL) |
| Time | Latitude | Longitude | Altitude | Speed | Heading |
|---|---|---|---|---|---|
| 2026-05-08 02:34 | 22.06443 | 114.26166 | 19328 ft | 439 kts | 122° |
| 2026-05-08 02:34 | 22.04845 | 114.28937 | 20175 ft | 443 kts | 122° |
| 2026-05-08 02:35 | 22.03202 | 114.31782 | 20930 ft | 449 kts | 122° |
| 2026-05-08 02:35 | 22.01554 | 114.34632 | 21587 ft | 456 kts | 122° |
| 2026-05-08 02:35 | 21.99864 | 114.37556 | 22336 ft | 461 kts | 122° |
| 2026-05-08 02:35 | 21.98173 | 114.40479 | 23163 ft | 464 kts | 122° |
| 2026-05-08 02:36 | 21.96461 | 114.43436 | 23900 ft | 469 kts | 122° |
| 2026-05-08 02:36 | 21.94730 | 114.46424 | 24628 ft | 474 kts | 122° |
| 2026-05-08 02:36 | 21.92993 | 114.49423 | 25289 ft | 480 kts | 122° |
| 2026-05-08 02:36 | 21.91199 | 114.52516 | 25956 ft | 487 kts | 122° |
| 2026-05-08 02:37 | 21.89409 | 114.55601 | 26681 ft | 491 kts | 122° |
| 2026-05-08 02:37 | 21.87577 | 114.58755 | 27409 ft | 496 kts | 122° |
| 2026-05-08 02:37 | 21.85761 | 114.61880 | 28046 ft | 502 kts | 121° |
| 2026-05-08 02:37 | 21.83883 | 114.65111 | 28683 ft | 507 kts | 122° |
| 2026-05-08 02:38 | 21.82024 | 114.68306 | 29342 ft | 512 kts | 122° |
| 2026-05-08 02:38 | 21.80125 | 114.71569 | 30094 ft | 515 kts | 122° |
| 2026-05-08 02:38 | 21.78210 | 114.74855 | 31020 ft | 512 kts | 122° |
| 2026-05-08 02:38 | 21.76322 | 114.78092 | 31894 ft | 510 kts | 122° |
| 2026-05-08 02:39 | 21.74434 | 114.81329 | 32644 ft | 510 kts | 122° |
| 2026-05-08 02:39 | 21.72546 | 114.84562 | 33365 ft | 511 kts | 122° |
| 2026-05-08 02:39 | 21.70681 | 114.87752 | 34059 ft | 512 kts | 122° |
| 2026-05-08 02:39 | 21.68759 | 114.91038 | 34816 ft | 512 kts | 122° |
| 2026-05-08 02:40 | 21.66858 | 114.94285 | 35518 ft | 511 kts | 121° |
| 2026-05-08 02:40 | 21.64947 | 114.97546 | 36129 ft | 512 kts | 121° |
| 2026-05-08 02:40 | 21.62945 | 115.00716 | 36619 ft | 514 kts | 126° |
| 2026-05-08 02:40 | 21.60746 | 115.03844 | 37126 ft | 515 kts | 126° |
| 2026-05-08 02:41 | 21.58569 | 115.06906 | 37568 ft | 517 kts | 126° |
| 2026-05-08 02:41 | 21.56384 | 115.09978 | 38053 ft | 517 kts | 126° |
| 2026-05-08 02:41 | 21.54202 | 115.13045 | 38502 ft | 517 kts | 126° |
| 2026-05-08 02:41 | 21.52004 | 115.16084 | 38904 ft | 518 kts | 129° |
| 2026-05-08 02:42 | 21.47108 | 115.21846 | 38971 ft | 516 kts | 132° |
| 2026-05-08 02:42 | 21.42235 | 115.27503 | 38971 ft | 515 kts | 131° |
| 2026-05-08 02:43 | 21.38195 | 115.32220 | 38969 ft | 516 kts | 131° |
| 2026-05-08 02:43 | 21.32550 | 115.38831 | 38968 ft | 513 kts | 131° |
| 2026-05-08 02:44 | 21.27697 | 115.44523 | 38968 ft | 516 kts | 131° |
| 2026-05-08 02:44 | 21.22886 | 115.50166 | 38970 ft | 514 kts | 131° |
| 2026-05-08 02:45 | 21.18059 | 115.55827 | 38964 ft | 514 kts | 131° |
| 2026-05-08 02:45 | 21.13215 | 115.61503 | 38961 ft | 513 kts | 131° |
| 2026-05-08 02:46 | 21.08398 | 115.67142 | 38950 ft | 515 kts | 131° |
| 2026-05-08 02:46 | 21.03571 | 115.72789 | 38957 ft | 512 kts | 131° |
| 2026-05-08 02:47 | 20.98741 | 115.78433 | 38955 ft | 512 kts | 131° |
| 2026-05-08 02:47 | 20.93955 | 115.84020 | 38954 ft | 512 kts | 131° |
| 2026-05-08 02:48 | 20.89147 | 115.89628 | 38950 ft | 513 kts | 131° |
| 2026-05-08 02:48 | 20.84214 | 115.95194 | 38933 ft | 515 kts | 138° |
| 2026-05-08 02:49 | 20.78675 | 116.00048 | 38946 ft | 513 kts | 140° |
| 2026-05-08 02:49 | 20.73138 | 116.04797 | 38943 ft | 511 kts | 140° |
| 2026-05-08 02:50 | 20.67577 | 116.09563 | 38949 ft | 513 kts | 140° |
| 2026-05-08 02:50 | 20.62001 | 116.14340 | 38948 ft | 512 kts | 140° |
| 2026-05-08 02:51 | 20.56458 | 116.19086 | 38949 ft | 512 kts | 140° |
| 2026-05-08 02:51 | 20.50894 | 116.23845 | 38953 ft | 510 kts | 140° |
| 2026-05-08 02:52 | 20.45340 | 116.28591 | 38962 ft | 512 kts | 140° |
| 2026-05-08 02:52 | 20.40338 | 116.32862 | 38973 ft | 509 kts | 140° |
| 2026-05-08 02:53 | 20.34800 | 116.37586 | 38973 ft | 510 kts | 140° |
| 2026-05-08 02:53 | 20.29233 | 116.42330 | 38975 ft | 510 kts | 140° |
| 2026-05-08 02:54 | 20.23676 | 116.47062 | 38975 ft | 508 kts | 140° |
| 2026-05-08 02:54 | 20.18107 | 116.51800 | 38975 ft | 508 kts | 140° |
| 2026-05-08 02:55 | 20.09811 | 116.58848 | 38978 ft | 507 kts | 140° |
| 2026-05-08 02:56 | 20.04317 | 116.63511 | 38972 ft | 506 kts | 140° |
| 2026-05-08 02:56 | 19.98974 | 116.68378 | 38964 ft | 505 kts | 131° |
| 2026-05-08 02:57 | 19.94214 | 116.73868 | 38962 ft | 503 kts | 130° |
| 2026-05-08 02:57 | 19.89492 | 116.79356 | 38958 ft | 504 kts | 130° |
| 2026-05-08 02:58 | 19.84788 | 116.84816 | 38948 ft | 502 kts | 130° |
| 2026-05-08 02:58 | 19.80051 | 116.90304 | 38947 ft | 502 kts | 130° |
| 2026-05-08 02:59 | 19.75345 | 116.95751 | 38952 ft | 502 kts | 130° |
| 2026-05-08 02:59 | 19.70641 | 117.01188 | 38949 ft | 499 kts | 130° |
| 2026-05-08 03:00 | 19.65923 | 117.06638 | 38948 ft | 501 kts | 130° |
| 2026-05-08 03:00 | 19.61211 | 117.12073 | 38954 ft | 500 kts | 130° |
| 2026-05-08 03:01 | 19.56537 | 117.17461 | 38950 ft | 499 kts | 130° |
| 2026-05-08 03:01 | 19.51791 | 117.22926 | 38952 ft | 500 kts | 130° |
| 2026-05-08 03:02 | 19.47108 | 117.28313 | 38953 ft | 498 kts | 130° |
| 2026-05-08 03:02 | 19.42398 | 117.33726 | 38955 ft | 497 kts | 130° |
| 2026-05-08 03:03 | 19.37706 | 117.39114 | 38958 ft | 496 kts | 130° |
| 2026-05-08 03:03 | 19.33042 | 117.44466 | 38956 ft | 495 kts | 130° |
| 2026-05-08 03:04 | 19.28377 | 117.49812 | 38963 ft | 497 kts | 130° |
| 2026-05-08 03:04 | 19.23700 | 117.55168 | 38959 ft | 495 kts | 130° |
| 2026-05-08 03:05 | 19.19039 | 117.60501 | 38956 ft | 494 kts | 131° |
| 2026-05-08 03:05 | 19.14352 | 117.65859 | 38957 ft | 494 kts | 131° |
| 2026-05-08 03:06 | 19.09709 | 117.71162 | 38961 ft | 494 kts | 131° |
| 2026-05-08 03:06 | 19.05011 | 117.76523 | 38954 ft | 493 kts | 131° |
| 2026-05-08 03:07 | 19.00362 | 117.81824 | 38954 ft | 496 kts | 131° |
| 2026-05-08 03:07 | 18.95672 | 117.87164 | 38953 ft | 493 kts | 131° |
| 2026-05-08 03:08 | 18.91007 | 117.92474 | 38953 ft | 495 kts | 131° |
| 2026-05-08 03:08 | 18.86343 | 117.97776 | 38945 ft | 493 kts | 131° |
| 2026-05-08 03:09 | 18.81668 | 118.03087 | 38942 ft | 491 kts | 131° |
| 2026-05-08 03:09 | 18.77021 | 118.08362 | 38939 ft | 491 kts | 131° |
| 2026-05-08 03:10 | 18.72390 | 118.13614 | 38938 ft | 491 kts | 131° |
| 2026-05-08 03:10 | 18.67722 | 118.18903 | 38938 ft | 490 kts | 131° |
| 2026-05-08 03:11 | 18.63067 | 118.24173 | 38940 ft | 492 kts | 131° |
| 2026-05-08 03:11 | 18.58413 | 118.29436 | 38934 ft | 490 kts | 131° |
| 2026-05-08 03:12 | 18.53788 | 118.34663 | 38934 ft | 490 kts | 131° |
| 2026-05-08 03:12 | 18.49131 | 118.39922 | 38932 ft | 490 kts | 131° |
| 2026-05-08 03:13 | 18.44483 | 118.45164 | 38925 ft | 488 kts | 131° |
| 2026-05-08 03:13 | 18.39841 | 118.50397 | 38917 ft | 489 kts | 131° |
| 2026-05-08 03:14 | 18.35206 | 118.55617 | 38918 ft | 489 kts | 131° |
| 2026-05-08 03:14 | 18.30562 | 118.60844 | 38918 ft | 488 kts | 131° |
| 2026-05-08 03:15 | 18.25917 | 118.66067 | 38917 ft | 489 kts | 131° |
| 2026-05-08 03:15 | 18.21276 | 118.71281 | 38915 ft | 487 kts | 131° |
| 2026-05-08 03:16 | 18.16646 | 118.76477 | 38914 ft | 487 kts | 131° |
| 2026-05-08 03:16 | 18.12015 | 118.81672 | 38912 ft | 486 kts | 131° |
| 2026-05-08 03:17 | 18.07394 | 118.86850 | 38912 ft | 486 kts | 131° |
| 2026-05-08 03:17 | 18.02778 | 118.92018 | 38914 ft | 486 kts | 131° |
| 2026-05-08 03:18 | 17.97709 | 118.96698 | 38910 ft | 489 kts | 146° |
| 2026-05-08 03:18 | 17.91763 | 119.00262 | 38916 ft | 490 kts | 149° |
| 2026-05-08 03:19 | 17.85799 | 119.03722 | 38906 ft | 490 kts | 149° |
| 2026-05-08 03:19 | 17.79825 | 119.07185 | 38907 ft | 491 kts | 149° |
| 2026-05-08 03:20 | 17.73857 | 119.10641 | 38906 ft | 489 kts | 149° |
| 2026-05-08 03:20 | 17.67888 | 119.14095 | 38907 ft | 489 kts | 149° |
| 2026-05-08 03:21 | 17.61933 | 119.17538 | 38902 ft | 488 kts | 149° |
| 2026-05-08 03:21 | 17.55959 | 119.20989 | 38906 ft | 489 kts | 149° |
| 2026-05-08 03:22 | 17.49980 | 119.24441 | 38907 ft | 489 kts | 149° |
| 2026-05-08 03:22 | 17.44014 | 119.27882 | 38907 ft | 489 kts | 149° |
| 2026-05-08 03:23 | 17.38054 | 119.31318 | 38905 ft | 488 kts | 149° |
| 2026-05-08 03:23 | 17.32076 | 119.34761 | 38906 ft | 488 kts | 149° |
| 2026-05-08 03:24 | 17.26080 | 119.38213 | 38909 ft | 488 kts | 149° |
| 2026-05-08 03:24 | 17.20106 | 119.41648 | 38910 ft | 488 kts | 149° |
| 2026-05-08 03:25 | 17.14169 | 119.45060 | 38910 ft | 488 kts | 149° |
| 2026-05-08 03:25 | 17.08195 | 119.48491 | 38908 ft | 488 kts | 149° |
| 2026-05-08 03:26 | 17.02244 | 119.51906 | 38911 ft | 488 kts | 149° |
| 2026-05-08 03:26 | 16.96281 | 119.55325 | 38899 ft | 488 kts | 149° |
| 2026-05-08 03:27 | 16.90308 | 119.58748 | 38893 ft | 487 kts | 149° |
| 2026-05-08 03:27 | 16.84378 | 119.62144 | 38885 ft | 487 kts | 149° |
| 2026-05-08 03:28 | 16.78411 | 119.65558 | 38879 ft | 487 kts | 150° |
| 2026-05-08 03:28 | 16.72489 | 119.68945 | 38881 ft | 487 kts | 150° |
| 2026-05-08 03:29 | 16.66525 | 119.72351 | 38883 ft | 487 kts | 150° |
| 2026-05-08 03:29 | 16.60623 | 119.75721 | 38879 ft | 485 kts | 150° |
| 2026-05-08 03:30 | 16.51676 | 119.80825 | 38877 ft | 485 kts | 150° |
| 2026-05-08 03:31 | 16.39826 | 119.87576 | 38554 ft | 480 kts | 150° |
| 2026-05-08 03:31 | 16.33923 | 119.90936 | 36701 ft | 485 kts | 150° |
| 2026-05-08 03:32 | 16.30965 | 119.92619 | 35880 ft | 486 kts | 150° |
| 2026-05-08 03:32 | 16.28007 | 119.94301 | 35057 ft | 487 kts | 150° |
| 2026-05-08 03:32 | 16.25003 | 119.96009 | 34159 ft | 489 kts | 149° |
| 2026-05-08 03:32 | 16.22012 | 119.97709 | 33264 ft | 490 kts | 149° |
| 2026-05-08 03:33 | 16.19007 | 119.99416 | 32370 ft | 492 kts | 149° |
| 2026-05-08 03:33 | 16.15987 | 120.01131 | 31491 ft | 495 kts | 149° |
| 2026-05-08 03:33 | 16.12946 | 120.02858 | 30577 ft | 499 kts | 149° |
| 2026-05-08 03:33 | 16.09917 | 120.04577 | 29997 ft | 494 kts | 150° |
| 2026-05-08 03:34 | 16.06893 | 120.06292 | 29426 ft | 489 kts | 150° |
| 2026-05-08 03:34 | 16.03920 | 120.07978 | 28812 ft | 485 kts | 150° |
| 2026-05-08 03:34 | 16.00957 | 120.09657 | 28176 ft | 482 kts | 150° |
| 2026-05-08 03:34 | 15.98015 | 120.11324 | 27537 ft | 480 kts | 150° |
| 2026-05-08 03:35 | 15.95112 | 120.12969 | 26905 ft | 477 kts | 150° |
| 2026-05-08 03:35 | 15.92202 | 120.14617 | 26262 ft | 474 kts | 150° |
| 2026-05-08 03:35 | 15.89293 | 120.16264 | 25615 ft | 471 kts | 150° |
| 2026-05-08 03:35 | 15.86416 | 120.17892 | 24948 ft | 467 kts | 150° |
| 2026-05-08 03:36 | 15.83592 | 120.19489 | 24326 ft | 464 kts | 150° |
| 2026-05-08 03:36 | 15.80740 | 120.21102 | 23674 ft | 461 kts | 150° |
| 2026-05-08 03:36 | 15.77951 | 120.22679 | 23005 ft | 458 kts | 150° |
| 2026-05-08 03:36 | 15.75158 | 120.24258 | 22347 ft | 455 kts | 150° |
| 2026-05-08 03:37 | 15.72395 | 120.25819 | 21629 ft | 448 kts | 150° |
| 2026-05-08 03:37 | 15.69691 | 120.27346 | 21030 ft | 436 kts | 150° |
| 2026-05-08 03:37 | 15.67076 | 120.28822 | 20416 ft | 426 kts | 150° |
| 2026-05-08 03:37 | 15.64498 | 120.30278 | 19834 ft | 423 kts | 150° |
| 2026-05-08 03:38 | 15.61909 | 120.31739 | 19168 ft | 422 kts | 150° |
| 2026-05-08 03:38 | 15.59321 | 120.33199 | 18533 ft | 421 kts | 150° |
| 2026-05-08 03:38 | 15.56767 | 120.34639 | 17879 ft | 420 kts | 150° |
| 2026-05-08 03:38 | 15.54193 | 120.36091 | 17236 ft | 418 kts | 150° |
| 2026-05-08 03:39 | 15.51657 | 120.37521 | 16622 ft | 416 kts | 150° |
| 2026-05-08 03:39 | 15.49126 | 120.38946 | 16400 ft | 403 kts | 150° |
| 2026-05-08 03:39 | 15.46714 | 120.40305 | 16277 ft | 387 kts | 150° |
| 2026-05-08 03:39 | 15.44377 | 120.41620 | 16140 ft | 374 kts | 150° |
| 2026-05-08 03:40 | 15.42109 | 120.42883 | 15980 ft | 362 kts | 153° |
| 2026-05-08 03:40 | 15.39793 | 120.43802 | 15779 ft | 353 kts | 160° |
| 2026-05-08 03:40 | 15.37452 | 120.44557 | 15481 ft | 348 kts | 161° |
| 2026-05-08 03:40 | 15.35154 | 120.45284 | 15179 ft | 342 kts | 161° |
| 2026-05-08 03:41 | 15.32886 | 120.46001 | 14907 ft | 336 kts | 161° |
| 2026-05-08 03:41 | 15.30680 | 120.46701 | 14651 ft | 329 kts | 161° |
| 2026-05-08 03:41 | 15.28496 | 120.47394 | 14386 ft | 324 kts | 161° |
| 2026-05-08 03:41 | 15.26353 | 120.48074 | 14129 ft | 318 kts | 161° |
| 2026-05-08 03:42 | 15.24226 | 120.48749 | 13889 ft | 317 kts | 161° |
| 2026-05-08 03:42 | 15.22109 | 120.49423 | 13635 ft | 318 kts | 161° |
| 2026-05-08 03:42 | 15.20751 | 120.49854 | 13472 ft | 317 kts | 161° |
| 2026-05-08 03:43 | 15.18629 | 120.50526 | 13217 ft | 316 kts | 161° |
| 2026-05-08 03:43 | 15.16545 | 120.51188 | 12966 ft | 314 kts | 161° |
| 2026-05-08 03:44 | 15.14449 | 120.51853 | 12713 ft | 312 kts | 161° |
| 2026-05-08 03:44 | 15.12384 | 120.52508 | 12468 ft | 311 kts | 161° |
| 2026-05-08 03:44 | 15.10293 | 120.53171 | 12217 ft | 310 kts | 161° |
| 2026-05-08 03:44 | 15.08238 | 120.53822 | 11970 ft | 307 kts | 161° |
| 2026-05-08 03:45 | 15.06199 | 120.54469 | 11728 ft | 306 kts | 161° |
| 2026-05-08 03:45 | 15.04161 | 120.55115 | 11485 ft | 305 kts | 161° |
| 2026-05-08 03:45 | 15.02135 | 120.55757 | 11234 ft | 304 kts | 161° |
| 2026-05-08 03:45 | 15.00098 | 120.56402 | 10968 ft | 303 kts | 161° |
| 2026-05-08 03:46 | 14.98090 | 120.57038 | 10750 ft | 302 kts | 161° |
| 2026-05-08 03:46 | 14.96083 | 120.57674 | 10495 ft | 301 kts | 161° |
| 2026-05-08 03:46 | 14.94080 | 120.58308 | 10274 ft | 299 kts | 161° |
| 2026-05-08 03:46 | 14.92097 | 120.58935 | 10026 ft | 294 kts | 161° |
| 2026-05-08 03:47 | 14.90144 | 120.59552 | 9788 ft | 289 kts | 161° |
| 2026-05-08 03:47 | 14.88245 | 120.60152 | 9547 ft | 284 kts | 160° |
| 2026-05-08 03:47 | 14.86354 | 120.60751 | 9309 ft | 282 kts | 160° |
| 2026-05-08 03:47 | 14.84456 | 120.61352 | 9073 ft | 281 kts | 160° |
| 2026-05-08 03:48 | 14.82597 | 120.61939 | 8825 ft | 280 kts | 160° |
| 2026-05-08 03:48 | 14.80736 | 120.62528 | 8594 ft | 278 kts | 160° |
| 2026-05-08 03:48 | 14.78857 | 120.63121 | 8372 ft | 278 kts | 160° |
| 2026-05-08 03:48 | 14.77020 | 120.63702 | 8131 ft | 277 kts | 160° |
| 2026-05-08 03:49 | 14.75188 | 120.64281 | 7896 ft | 275 kts | 160° |
| 2026-05-08 03:49 | 14.73340 | 120.64864 | 7684 ft | 274 kts | 160° |
| 2026-05-08 03:49 | 14.71521 | 120.65438 | 7458 ft | 274 kts | 160° |
| 2026-05-08 03:49 | 14.69691 | 120.66016 | 7236 ft | 273 kts | 160° |
| 2026-05-08 03:50 | 14.67867 | 120.66592 | 6998 ft | 271 kts | 160° |
| 2026-05-08 03:50 | 14.66058 | 120.67163 | 6787 ft | 269 kts | 160° |
| 2026-05-08 03:50 | 14.64272 | 120.67726 | 6556 ft | 268 kts | 160° |
| 2026-05-08 03:50 | 14.62469 | 120.68296 | 6327 ft | 267 kts | 160° |
| 2026-05-08 03:51 | 14.60793 | 120.69048 | 6117 ft | 262 kts | 149° |
| 2026-05-08 03:51 | 14.59216 | 120.69961 | 5917 ft | 257 kts | 148° |
| 2026-05-08 03:51 | 14.57670 | 120.70876 | 5727 ft | 252 kts | 147° |
| 2026-05-08 03:51 | 14.56157 | 120.71767 | 5516 ft | 248 kts | 147° |
| 2026-05-08 03:52 | 14.54656 | 120.72647 | 5306 ft | 244 kts | 147° |
| 2026-05-08 03:52 | 14.53194 | 120.73503 | 5111 ft | 239 kts | 147° |
| 2026-05-08 03:52 | 14.51757 | 120.74345 | 4921 ft | 235 kts | 147° |
| 2026-05-08 03:52 | 14.50358 | 120.75169 | 4756 ft | 230 kts | 147° |
| 2026-05-08 03:53 | 14.48983 | 120.75985 | 4635 ft | 225 kts | 147° |
| 2026-05-08 03:53 | 14.47621 | 120.76794 | 4523 ft | 224 kts | 147° |
| 2026-05-08 03:53 | 14.46275 | 120.77590 | 4401 ft | 218 kts | 147° |
| 2026-05-08 03:53 | 14.44983 | 120.78355 | 4285 ft | 211 kts | 146° |
| 2026-05-08 03:54 | 14.43727 | 120.79098 | 4168 ft | 204 kts | 146° |
| 2026-05-08 03:54 | 14.42493 | 120.79829 | 4056 ft | 200 kts | 146° |
| 2026-05-08 03:54 | 14.41308 | 120.80554 | 3928 ft | 193 kts | 139° |
| 2026-05-08 03:54 | 14.40565 | 120.81636 | 3841 ft | 185 kts | 105° |
| 2026-05-08 03:55 | 14.40500 | 120.82935 | 3685 ft | 186 kts | 79° |
| 2026-05-08 03:55 | 14.40915 | 120.84207 | 3457 ft | 186 kts | 64° |
| 2026-05-08 03:55 | 14.41543 | 120.85366 | 3215 ft | 186 kts | 61° |
| 2026-05-08 03:55 | 14.42199 | 120.86506 | 2973 ft | 185 kts | 61° |
| 2026-05-08 03:56 | 14.42854 | 120.87660 | 2715 ft | 184 kts | 62° |
| 2026-05-08 03:56 | 14.43492 | 120.88795 | 2471 ft | 181 kts | 62° |
| 2026-05-08 03:56 | 14.44108 | 120.89891 | 2261 ft | 173 kts | 62° |
| 2026-05-08 03:56 | 14.44689 | 120.90927 | 2033 ft | 160 kts | 62° |
| 2026-05-08 03:57 | 14.45225 | 120.91884 | 1829 ft | 150 kts | 62° |
| 2026-05-08 03:57 | 14.45730 | 120.92785 | 1635 ft | 140 kts | 63° |
| 2026-05-08 03:57 | 14.46213 | 120.93651 | 1463 ft | 138 kts | 63° |
| 2026-05-08 03:57 | 14.46693 | 120.94506 | 1277 ft | 138 kts | 63° |
| 2026-05-08 03:58 | 14.47179 | 120.95377 | 1100 ft | 139 kts | 63° |
| 2026-05-08 03:58 | 14.47662 | 120.96241 | 901 ft | 141 kts | 62° |
| 2026-05-08 03:58 | 14.48159 | 120.97124 | 720 ft | 142 kts | 62° |
| 2026-05-08 03:58 | 14.48645 | 120.97985 | 523 ft | 140 kts | 61° |
| 2026-05-08 03:59 | 14.49140 | 120.98847 | 349 ft | 140 kts | 62° |
| 2026-05-08 03:59 | 14.49631 | 120.99732 | 196 ft | 143 kts | 63° |
| 2026-05-08 03:59 | 14.50112 | 121.00607 | 89 ft | 128 kts | 59° |
| 2026-05-08 03:59 | 14.50496 | 121.01295 | 88 ft | 92 kts | 61° |
| 2026-05-08 04:00 | 14.50754 | 121.01759 | 88 ft | 56 kts | 60° |
| 2026-05-08 04:00 | 14.50889 | 121.02000 | 88 ft | 21 kts | 60° |
| 2026-05-08 04:00 | 14.50942 | 121.02093 | 88 ft | 6 kts | 58° |
| 2026-05-08 04:00 | 14.50972 | 121.02139 | 88 ft | 7 kts | 52° |
| 2026-05-08 04:01 | 14.51009 | 121.02182 | 88 ft | 8 kts | 44° |
| 2026-05-08 04:01 | 14.51051 | 121.02221 | 88 ft | 8 kts | 41° |
| 2026-05-08 04:01 | 14.51093 | 121.02260 | 88 ft | 8 kts | 41° |
| 2026-05-08 04:01 | 14.51139 | 121.02295 | 88 ft | 8 kts | 25° |
| 2026-05-08 04:02 | 14.51182 | 121.02283 | 88 ft | 6 kts | 297° |
| 2026-05-08 04:02 | 14.51177 | 121.02236 | 88 ft | 7 kts | 247° |
| 2026-05-08 04:02 | 14.51153 | 121.02190 | 88 ft | 7 kts | 240° |
| 2026-05-08 04:02 | 14.51126 | 121.02142 | 88 ft | 8 kts | 240° |
| 2026-05-08 04:03 | 14.51097 | 121.02090 | 88 ft | 8 kts | 240° |
| 2026-05-08 04:03 | 14.51070 | 121.01991 | 88 ft | 6 kts | 307° |
| 2026-05-08 04:03 | 14.51104 | 121.01954 | 88 ft | 7 kts | 314° |
| 2026-05-08 04:04 | 14.51141 | 121.01914 | 88 ft | 7 kts | 314° |
| 2026-05-08 04:04 | 14.51180 | 121.01873 | 88 ft | 8 kts | 316° |
| 2026-05-08 04:04 | 14.51223 | 121.01832 | 88 ft | 8 kts | 316° |
| 2026-05-08 04:04 | 14.51268 | 121.01786 | 88 ft | 9 kts | 313° |
| 2026-05-08 04:05 | 14.51312 | 121.01739 | 88 ft | 9 kts | 314° |
| 2026-05-08 04:05 | 14.51359 | 121.01690 | 88 ft | 9 kts | 314° |
| 2026-05-08 04:05 | 14.51407 | 121.01641 | 88 ft | 9 kts | 315° |
| 2026-05-08 04:05 | 14.51455 | 121.01591 | 88 ft | 9 kts | 314° |
| 2026-05-08 04:06 | 14.51503 | 121.01540 | 88 ft | 10 kts | 315° |
| 2026-05-08 04:06 | 14.51553 | 121.01489 | 88 ft | 10 kts | 314° |
| 2026-05-08 04:06 | 14.51605 | 121.01436 | 88 ft | 10 kts | 315° |
| 2026-05-08 04:06 | 14.51656 | 121.01382 | 88 ft | 10 kts | 315° |
| 2026-05-08 04:07 | 14.51708 | 121.01330 | 88 ft | 10 kts | 316° |
| 2026-05-08 04:07 | 14.51759 | 121.01276 | 88 ft | 10 kts | 314° |
| 2026-05-08 04:07 | 14.51801 | 121.01232 | 88 ft | 4 kts | 315° |
| 2026-05-08 04:07 | 14.51823 | 121.01216 | 88 ft | 0 kts | 340° |
| 2026-05-08 04:08 | 14.51828 | 121.01216 | 88 ft | 0 kts | 7° |
| 2026-05-08 04:08 | 14.51845 | 121.01222 | 88 ft | 6 kts | 28° |
| 2026-05-08 04:08 | 14.51871 | 121.01247 | 88 ft | 2 kts | 45° |
| 2026-05-08 04:08 | 14.51885 | 121.01261 | 88 ft | 3 kts | 46° |
| 2026-05-08 04:09 | 14.51887 | 121.01263 | 88 ft | 0 kts | 46° |
| 2026-05-08 04:09 | 14.51888 | 121.01264 | 88 ft | 0 kts | 46° |
| 2026-05-08 04:09 | 14.51889 | 121.01265 | 88 ft | 0 kts | 46° |